Time;durP1;ratioP1;P1;durP2;ratioP2;P2;SDS_P1;SDS_P2;PMS_P1;PMS_P2;Temp;Humidity;BMP_temperature;BMP_pressure;BME280_temperature;BME280_humidity;BME280_pressure;Samples;Min_cycle;Max_cycle;Signal;HPM_P1;HPM_P2
2022/04/20 00:00:43;;;;;;;10.70;5.40;;;2.30;99.90;;;;;;4259968;27;20282;-57
2022/04/20 00:02:44;;;;;;;8.87;4.60;;;2.20;99.90;;;;;;4256531;27;20274;-54
2022/04/20 00:04:45;;;;;;;12.40;5.33;;;2.20;99.90;;;;;;4257927;27;21095;-53
2022/04/20 00:06:46;;;;;;;9.97;4.80;;;2.20;99.90;;;;;;4257134;27;20311;-58
2022/04/20 00:08:47;;;;;;;7.13;4.13;;;2.20;99.90;;;;;;4258370;27;20303;-56
2022/04/20 00:10:49;;;;;;;11.10;4.43;;;2.10;99.90;;;;;;4257061;27;20347;-51
2022/04/20 00:12:50;;;;;;;9.70;5.23;;;2.20;99.90;;;;;;4257675;27;20822;-61
2022/04/20 00:14:51;;;;;;;8.00;4.70;;;2.10;99.90;;;;;;4238309;27;20332;-57
2022/04/20 00:16:52;;;;;;;7.87;4.43;;;2.10;99.90;;;;;;4240953;27;20271;-54
2022/04/20 00:18:53;;;;;;;9.53;5.40;;;2.10;99.90;;;;;;4239826;27;20251;-55
2022/04/20 00:20:55;;;;;;;11.13;5.03;;;2.10;99.90;;;;;;4240334;27;20263;-54
2022/04/20 00:22:56;;;;;;;10.43;4.63;;;2.00;99.90;;;;;;4240437;27;20270;-52
2022/04/20 00:24:57;;;;;;;7.57;4.27;;;2.10;99.90;;;;;;4239694;27;21749;-52
2022/04/20 00:26:58;;;;;;;7.63;4.80;;;2.00;99.90;;;;;;4240449;27;20315;-51
2022/04/20 00:28:59;;;;;;;7.20;3.97;;;2.10;99.90;;;;;;4252045;27;20777;-52
2022/04/20 00:31:00;;;;;;;8.13;4.63;;;2.10;99.90;;;;;;4257098;27;20355;-59
2022/04/20 00:33:01;;;;;;;7.27;3.97;;;2.10;99.90;;;;;;4270932;27;20331;-56
2022/04/20 00:35:03;;;;;;;7.77;3.90;;;2.10;99.90;;;;;;4275687;27;20611;-57
2022/04/20 00:37:04;;;;;;;9.83;4.03;;;2.10;99.90;;;;;;4273264;27;20253;-53
2022/04/20 00:39:05;;;;;;;10.87;4.27;;;2.10;99.90;;;;;;4274609;27;21097;-60
2022/04/20 00:41:09;;;;;;;7.37;4.10;;;2.20;99.90;;;;;;4273788;27;20266;-54
2022/04/20 00:43:10;;;;;;;7.00;3.43;;;2.10;99.90;;;;;;4275262;27;20683;-55
2022/04/20 00:45:12;;;;;;;9.33;4.90;;;2.10;99.90;;;;;;4274108;27;20274;-53
2022/04/20 00:47:15;;;;;;;6.93;3.80;;;2.10;99.90;;;;;;4274701;27;20261;-53
2022/04/20 00:49:17;;;;;;;9.03;4.33;;;2.10;99.90;;;;;;4271138;27;20285;-53
2022/04/20 00:51:19;;;;;;;7.87;3.97;;;2.10;99.90;;;;;;4275137;27;20282;-52
2022/04/20 00:53:20;;;;;;;7.70;4.17;;;2.10;99.90;;;;;;4270187;27;20262;-52
2022/04/20 00:55:21;;;;;;;6.90;3.50;;;2.10;99.90;;;;;;4259190;27;20258;-55
2022/04/20 00:57:23;;;;;;;7.13;3.57;;;2.00;99.90;;;;;;4259416;27;20262;-55
2022/04/20 00:59:26;;;;;;;6.57;4.37;;;2.00;99.90;;;;;;4260629;27;20275;-52
2022/04/20 01:01:29;;;;;;;7.87;4.47;;;2.00;99.90;;;;;;4260337;27;21040;-54
2022/04/20 01:03:31;;;;;;;7.23;3.70;;;2.00;99.90;;;;;;4260245;27;20266;-61
2022/04/20 01:05:32;;;;;;;6.47;3.37;;;2.00;99.90;;;;;;4259297;27;20327;-54
2022/04/20 01:07:37;;;;;;;7.07;3.87;;;2.00;99.90;;;;;;4276699;27;20326;-56
2022/04/20 01:09:40;;;;;;;7.10;3.30;;;2.00;99.90;;;;;;4277647;27;20365;-52
2022/04/20 01:11:42;;;;;;;6.37;3.70;;;2.00;99.90;;;;;;4277371;27;20278;-54
2022/04/20 01:13:43;;;;;;;8.57;4.07;;;2.00;99.90;;;;;;4278773;27;20255;-50
2022/04/20 01:15:44;;;;;;;8.23;3.73;;;2.00;99.90;;;;;;4277129;27;20310;-54
2022/04/20 01:17:45;;;;;;;6.20;3.33;;;1.90;99.90;;;;;;4277709;27;20307;-54
2022/04/20 01:19:46;;;;;;;8.80;4.00;;;1.90;99.90;;;;;;4275305;27;21156;-54
2022/04/20 01:21:47;;;;;;;6.03;3.37;;;1.90;99.90;;;;;;4278003;27;20338;-51
2022/04/20 01:23:49;;;;;;;6.93;3.60;;;2.00;99.90;;;;;;4276623;27;20644;-60
2022/04/20 01:25:50;;;;;;;7.13;3.40;;;2.00;99.90;;;;;;4277772;27;20330;-62
2022/04/20 01:27:52;;;;;;;6.53;3.10;;;1.90;99.90;;;;;;4277288;27;20355;-52
2022/04/20 01:29:53;;;;;;;7.03;3.43;;;1.90;99.90;;;;;;4275858;27;20965;-54
2022/04/20 01:31:55;;;;;;;6.70;3.33;;;1.90;99.90;;;;;;4277527;27;20269;-51
2022/04/20 01:33:56;;;;;;;6.00;3.87;;;1.90;99.90;;;;;;4277260;27;20258;-54
2022/04/20 01:35:57;;;;;;;8.33;3.93;;;1.90;99.90;;;;;;4276591;27;20273;-55
2022/04/20 01:37:58;;;;;;;8.83;4.70;;;1.80;99.90;;;;;;4276302;27;20270;-56
2022/04/20 01:40:00;;;;;;;7.80;4.50;;;1.80;99.90;;;;;;4277996;27;20258;-50
2022/04/20 01:42:01;;;;;;;7.70;4.40;;;1.70;99.90;;;;;;4240501;27;20403;-56
2022/04/20 01:44:02;;;;;;;8.83;4.57;;;1.60;99.90;;;;;;4242054;27;20327;-50
2022/04/20 01:46:03;;;;;;;10.10;4.90;;;1.50;99.90;;;;;;4259269;27;20271;-56
2022/04/20 01:48:06;;;;;;;9.90;4.67;;;1.50;99.90;;;;;;4260413;27;20282;-55
2022/04/20 01:50:07;;;;;;;8.17;4.47;;;1.50;99.90;;;;;;4259383;27;20298;-55
2022/04/20 01:52:09;;;;;;;8.20;4.70;;;1.40;99.90;;;;;;4242227;27;20653;-52
2022/04/20 01:54:11;;;;;;;10.50;5.47;;;1.40;99.90;;;;;;4259345;27;20279;-55
2022/04/20 01:56:12;;;;;;;10.90;5.10;;;1.30;99.90;;;;;;4260093;27;20274;-54
2022/04/20 01:58:13;;;;;;;8.40;4.83;;;1.20;99.90;;;;;;4258742;27;20660;-55
2022/04/20 02:00:16;;;;;;;9.27;5.33;;;1.20;99.90;;;;;;4259696;27;20259;-50
2022/04/20 02:02:35;;;;;;;10.10;4.90;;;1.10;99.90;;;;;;4259708;27;20753;-52
2022/04/20 02:04:36;;;;;;;11.03;5.77;;;1.10;99.90;;;;;;4259893;27;20319;-51
2022/04/20 02:06:38;;;;;;;6.97;4.23;;;1.00;99.90;;;;;;4264351;27;20274;-54
2022/04/20 02:08:39;;;;;;;9.10;4.73;;;1.00;99.90;;;;;;4275846;27;20273;-50
2022/04/20 02:10:40;;;;;;;11.77;5.13;;;1.00;99.90;;;;;;4276639;27;20266;-53
2022/04/20 02:12:41;;;;;;;10.07;5.37;;;1.00;99.90;;;;;;4275884;27;20270;-54
2022/04/20 02:14:42;;;;;;;11.70;4.83;;;1.00;99.90;;;;;;4276545;27;20689;-51
2022/04/20 02:16:44;;;;;;;11.47;5.87;;;1.00;99.90;;;;;;4275092;27;20274;-51
2022/04/20 02:18:45;;;;;;;7.67;5.13;;;1.00;99.90;;;;;;4277362;27;20265;-49
2022/04/20 02:20:47;;;;;;;9.33;4.60;;;1.00;99.90;;;;;;4275255;27;20326;-55
2022/04/20 02:22:48;;;;;;;10.63;5.10;;;1.00;99.90;;;;;;4276401;27;20826;-55
2022/04/20 02:24:49;;;;;;;10.27;5.00;;;0.90;99.90;;;;;;4272395;27;20402;-50
2022/04/20 02:26:50;;;;;;;8.03;5.13;;;0.90;99.90;;;;;;4260359;27;20746;-57
2022/04/20 02:28:52;;;;;;;11.77;5.03;;;0.90;99.90;;;;;;4258337;27;20267;-55
2022/04/20 02:30:53;;;;;;;11.37;5.00;;;0.90;99.90;;;;;;4259615;27;21040;-52
2022/04/20 02:32:54;;;;;;;11.77;5.30;;;0.80;99.90;;;;;;4258131;27;20258;-54
2022/04/20 02:34:55;;;;;;;10.93;5.37;;;0.80;99.90;;;;;;4259096;27;20728;-53
2022/04/20 02:36:58;;;;;;;11.47;5.37;;;0.80;99.90;;;;;;4269258;27;20326;-53
2022/04/20 02:39:03;;;;;;;8.90;5.50;;;0.80;99.90;;;;;;4276344;27;20666;-56
2022/04/20 02:41:05;;;;;;;11.77;6.20;;;0.70;99.90;;;;;;4275458;27;20293;-57
2022/04/20 02:43:07;;;;;;;13.40;5.97;;;0.70;99.90;;;;;;4275167;27;20888;-56
2022/04/20 02:45:08;;;;;;;12.93;6.10;;;0.70;99.90;;;;;;4276569;27;20277;-55
2022/04/20 02:47:09;;;;;;;11.00;4.87;;;0.70;99.90;;;;;;4274525;27;20262;-57
2022/04/20 02:49:10;;;;;;;10.50;5.40;;;0.60;99.90;;;;;;4275426;27;20290;-52
2022/04/20 02:51:12;;;;;;;12.07;5.83;;;0.60;99.90;;;;;;4274598;27;20282;-55
2022/04/20 02:53:13;;;;;;;8.20;4.50;;;0.60;99.90;;;;;;4276052;27;20318;-51
2022/04/20 02:55:14;;;;;;;8.47;4.73;;;0.60;99.90;;;;;;4275034;27;20270;-56
2022/04/20 02:57:15;;;;;;;9.47;4.30;;;0.70;99.90;;;;;;4260440;27;20350;-55
2022/04/20 02:59:16;;;;;;;7.67;4.13;;;0.70;99.90;;;;;;4257960;27;20365;-54
2022/04/20 03:01:17;;;;;;;7.43;3.60;;;0.70;99.90;;;;;;4259040;27;20266;-56
2022/04/20 03:03:18;;;;;;;6.13;3.27;;;0.80;99.90;;;;;;4257927;27;20599;-55
2022/04/20 03:05:19;;;;;;;5.80;3.33;;;0.80;99.90;;;;;;4259192;27;20258;-57
2022/04/20 03:07:21;;;;;;;7.20;3.53;;;0.80;99.90;;;;;;4257835;27;20266;-53
2022/04/20 03:09:22;;;;;;;6.00;3.20;;;0.90;99.90;;;;;;4257519;27;20294;-52
2022/04/20 03:11:24;;;;;;;6.57;3.80;;;0.90;99.90;;;;;;4258561;27;20797;-56
2022/04/20 03:13:26;;;;;;;8.97;3.67;;;0.90;99.90;;;;;;4257799;27;20315;-50
2022/04/20 03:15:27;;;;;;;6.70;3.23;;;0.80;99.90;;;;;;4239990;27;20348;-53
2022/04/20 03:17:28;;;;;;;7.03;3.43;;;0.80;99.90;;;;;;4256992;27;20378;-53
2022/04/20 03:19:29;;;;;;;6.23;3.30;;;0.80;99.90;;;;;;4259373;27;21042;-57
2022/04/20 03:21:30;;;;;;;7.50;3.47;;;0.80;99.90;;;;;;4257731;27;20334;-53
2022/04/20 03:23:31;;;;;;;6.97;3.70;;;0.80;99.90;;;;;;4258710;27;20332;-54
2022/04/20 03:25:33;;;;;;;5.27;3.03;;;0.80;99.90;;;;;;4257230;27;20676;-55
2022/04/20 03:27:34;;;;;;;8.90;4.63;;;0.80;99.90;;;;;;4258737;27;20691;-56
2022/04/20 03:29:35;;;;;;;11.10;5.83;;;0.70;99.90;;;;;;4257338;27;20299;-49
2022/04/20 03:31:38;;;;;;;25.87;12.77;;;0.80;99.90;;;;;;4258292;27;20331;-55
2022/04/20 03:33:39;;;;;;;30.77;16.20;;;0.80;99.90;;;;;;4257276;27;20705;-55
2022/04/20 03:35:40;;;;;;;26.07;15.57;;;0.80;99.90;;;;;;4258014;27;20263;-56
2022/04/20 03:37:42;;;;;;;23.80;13.70;;;0.80;99.90;;;;;;4257240;27;20529;-54
2022/04/20 03:39:44;;;;;;;11.00;7.03;;;0.80;99.90;;;;;;4257458;27;20315;-63
2022/04/20 03:41:45;;;;;;;8.43;5.13;;;0.90;99.90;;;;;;4244066;27;20255;-63
2022/04/20 03:43:46;;;;;;;6.43;4.20;;;0.90;99.90;;;;;;4240693;27;20243;-53
2022/04/20 03:45:48;;;;;;;5.57;3.93;;;0.90;99.90;;;;;;4241123;27;20398;-51
2022/04/20 03:47:49;;;;;;;9.80;4.30;;;1.00;99.90;;;;;;4240000;27;20263;-57
2022/04/20 03:49:50;;;;;;;6.10;3.87;;;1.30;99.90;;;;;;4240597;27;20295;-56
2022/04/20 03:51:51;;;;;;;8.77;4.60;;;1.50;99.90;;;;;;4239967;27;20668;-56
2022/04/20 03:53:52;;;;;;;6.50;4.20;;;1.80;99.90;;;;;;4240656;27;20325;-58
2022/04/20 03:55:54;;;;;;;5.30;3.67;;;2.10;99.90;;;;;;4240363;27;20695;-59
2022/04/20 03:57:55;;;;;;;7.33;3.80;;;2.30;99.90;;;;;;4241441;27;20255;-53
2022/04/20 03:59:56;;;;;;;8.37;4.90;;;2.60;99.90;;;;;;4240853;27;20332;-55
2022/04/20 04:01:57;;;;;;;7.90;5.03;;;2.90;99.90;;;;;;4244371;27;20335;-51
2022/04/20 04:03:58;;;;;;;10.00;4.47;;;3.20;99.90;;;;;;4255797;27;20318;-57
2022/04/20 04:06:00;;;;;;;7.47;3.73;;;3.50;99.90;;;;;;4257842;27;20270;-56
2022/04/20 04:08:01;;;;;;;10.60;4.37;;;3.70;99.90;;;;;;4256110;27;20266;-52
2022/04/20 04:10:02;;;;;;;5.27;3.00;;;4.10;99.90;;;;;;4256922;27;20355;-54
2022/04/20 04:12:03;;;;;;;7.67;4.03;;;4.30;99.90;;;;;;4257576;27;20726;-54
2022/04/20 04:14:05;;;;;;;11.13;3.63;;;4.50;99.90;;;;;;4257505;27;20753;-56
2022/04/20 04:16:06;;;;;;;9.67;4.00;;;4.50;99.90;;;;;;4264334;27;20749;-51
2022/04/20 04:18:07;;;;;;;8.43;3.87;;;4.90;99.90;;;;;;4273096;27;20326;-56
2022/04/20 04:20:09;;;;;;;8.53;3.40;;;5.40;99.90;;;;;;4274560;27;21699;-61
2022/04/20 04:22:10;;;;;;;6.83;3.80;;;5.80;99.90;;;;;;4257033;27;20271;-57
2022/04/20 04:24:34;;;;;;;13.40;3.80;;;6.20;99.90;;;;;;4258102;27;20334;-53
2022/04/20 04:26:32;;;;;;;;;;;6.40;99.90;;;;;;4256551;27;20315;-58
2022/04/20 04:28:33;;;;;;;;;;;6.50;97.80;;;;;;4257481;27;19910;-52
2022/04/20 04:30:34;;;;;;;;;;;6.80;96.90;;;;;;4255901;27;19992;-56
2022/04/20 04:32:35;;;;;;;;;;;7.00;96.10;;;;;;4257241;27;20323;-61
2022/04/20 04:34:36;;;;;;;8.68;3.22;;;7.50;95.70;;;;;;4249661;27;19956;-57
2022/04/20 04:36:38;;;;;;;7.80;4.33;;;7.90;97.20;;;;;;4249853;27;20031;-60
2022/04/20 04:38:39;;;;;;;6.27;3.57;;;8.30;96.40;;;;;;4251060;27;20539;-54
2022/04/20 04:40:40;;;;;;;6.27;3.37;;;8.80;95.20;;;;;;4256766;27;20275;-54
2022/04/20 04:42:41;;;;;;;7.63;4.30;;;8.80;93.60;;;;;;4256547;27;20438;-55
2022/04/20 04:44:42;;;;;;;10.40;3.93;;;8.90;93.70;;;;;;4257178;27;20035;-57
2022/04/20 04:49:03;;;;;;;12.17;4.00;;;9.00;92.60;;;;;;4256872;27;20046;-54
2022/04/20 04:51:05;;;;;;;9.03;3.90;;;9.10;91.80;;;;;;4256230;27;20618;-50
2022/04/20 04:53:06;;;;;;;9.07;4.20;;;9.60;91.50;;;;;;4256619;27;20035;-51
2022/04/20 04:55:07;;;;;;;8.43;4.17;;;10.00;90.90;;;;;;4256552;27;20042;-54
2022/04/20 04:57:09;;;;;;;8.50;3.83;;;10.30;89.30;;;;;;4246310;27;20043;-56
2022/04/20 04:59:11;;;;;;;17.63;4.60;;;10.70;87.50;;;;;;4256384;27;20046;-57
2022/04/20 05:01:12;;;;;;;6.03;3.30;;;10.70;85.60;;;;;;4256138;27;20035;-56
2022/04/20 05:03:14;;;;;;;3.73;2.57;;;10.70;84.20;;;;;;4243921;27;20046;-50
2022/04/20 05:05:15;;;;;;;5.77;2.80;;;10.60;83.30;;;;;;4244273;27;20546;-53
2022/04/20 05:07:17;;;;;;;6.43;3.47;;;10.50;83.40;;;;;;4257983;27;20463;-53
2022/04/20 05:09:18;;;;;;;5.60;3.07;;;11.00;82.90;;;;;;4256094;27;20087;-55
2022/04/20 05:11:19;;;;;;;9.67;3.17;;;11.70;81.10;;;;;;4257833;27;20039;-54
2022/04/20 05:13:20;;;;;;;6.70;3.00;;;12.20;79.00;;;;;;4255989;27;20050;-54
2022/04/20 05:15:21;;;;;;;5.53;2.70;;;12.20;77.20;;;;;;4257212;27;20042;-56
2022/04/20 05:17:22;;;;;;;6.87;3.13;;;12.10;76.70;;;;;;4255506;27;20482;-54
2022/04/20 05:19:23;;;;;;;8.73;3.27;;;12.50;76.10;;;;;;4258265;27;20022;-53
2022/04/20 05:21:24;;;;;;;5.07;2.87;;;12.90;75.10;;;;;;4268822;27;20015;-50
2022/04/20 05:23:26;;;;;;;7.23;2.80;;;13.00;73.00;;;;;;4244239;27;20022;-59
2022/04/20 05:25:27;;;;;;;4.50;2.67;;;12.70;73.30;;;;;;4257525;27;20079;-52
2022/04/20 05:27:28;;;;;;;8.17;5.23;;;12.90;73.00;;;;;;4253384;27;20046;-54
2022/04/20 05:29:30;;;;;;;6.63;3.87;;;12.90;71.70;;;;;;4258107;27;20061;-56
2022/04/20 05:31:31;;;;;;;12.63;6.77;;;13.20;71.10;;;;;;4252257;27;20091;-54
2022/04/20 05:33:34;;;;;;;6.77;3.27;;;12.50;69.90;;;;;;4255202;27;20075;-54
2022/04/20 05:35:35;;;;;;;3.87;3.00;;;12.60;70.70;;;;;;4255151;27;20067;-54
2022/04/20 05:42:17;;;;;;;3.97;2.80;;;12.70;68.20;;;;;;4254867;27;20042;-55
2022/04/20 05:44:18;;;;;;;4.97;2.60;;;12.30;69.40;;;;;;4240917;27;20100;-57
2022/04/20 05:46:20;;;;;;;7.57;3.27;;;13.10;69.10;;;;;;4260253;27;20391;-53
2022/04/20 05:48:21;;;;;;;8.17;3.03;;;13.40;67.70;;;;;;4263007;27;20042;-57
2022/04/20 05:50:22;;;;;;;8.03;2.67;;;13.90;67.30;;;;;;4270836;27;20038;-56
2022/04/20 05:52:23;;;;;;;8.83;3.73;;;14.50;66.50;;;;;;4259466;27;20023;-55
2022/04/20 05:54:24;;;;;;;6.50;3.30;;;14.90;65.60;;;;;;4264376;27;20034;-55
2022/04/20 05:56:27;;;;;;;5.97;2.80;;;15.40;64.70;;;;;;4270412;27;20057;-58
2022/04/20 05:58:28;;;;;;;8.23;2.90;;;15.80;63.70;;;;;;4264636;27;20027;-58
2022/04/20 06:00:31;;;;;;;7.10;3.53;;;16.20;62.60;;;;;;4276984;27;20094;-57
2022/04/20 06:02:33;;;;;;;7.80;3.20;;;16.20;61.80;;;;;;4270353;27;20046;-53
2022/04/20 06:04:34;;;;;;;5.60;3.07;;;16.30;61.20;;;;;;4259412;27;20091;-56
2022/04/20 06:06:35;;;;;;;5.53;3.13;;;16.20;60.90;;;;;;4259272;27;20139;-52
2022/04/20 06:08:36;;;;;;;6.60;2.90;;;15.90;60.50;;;;;;4259889;27;20911;-57
2022/04/20 06:10:37;;;;;;;5.30;3.10;;;16.00;60.70;;;;;;4258653;27;20046;-50
2022/04/20 06:12:38;;;;;;;6.20;3.07;;;15.60;60.40;;;;;;4264483;27;20050;-50
2022/04/20 06:14:39;;;;;;;9.13;2.80;;;15.60;60.80;;;;;;4270378;27;20034;-53
2022/04/20 06:16:41;;;;;;;9.80;3.13;;;16.00;60.50;;;;;;4267991;27;20448;-56
2022/04/20 06:18:42;;;;;;;8.40;3.20;;;16.10;59.90;;;;;;4260196;27;20034;-53
2022/04/20 06:20:43;;;;;;;7.30;3.03;;;16.30;59.70;;;;;;4259327;27;20054;-57
2022/04/20 06:22:44;;;;;;;6.67;2.90;;;16.70;59.20;;;;;;4257867;27;20058;-54
2022/04/20 06:24:45;;;;;;;5.07;3.33;;;17.10;58.60;;;;;;4261489;27;20684;-56
2022/04/20 06:26:46;;;;;;;7.13;2.90;;;17.20;58.30;;;;;;4260682;27;20046;-57
2022/04/20 06:28:47;;;;;;;10.23;3.67;;;17.40;58.00;;;;;;4258133;27;20432;-58
2022/04/20 06:30:49;;;;;;;7.20;3.20;;;17.30;57.40;;;;;;4258034;27;20055;-54
2022/04/20 06:32:50;;;;;;;7.00;2.78;;;17.40;57.70;;;;;;4243879;27;20456;-57
2022/04/20 06:34:55;;;;;;;6.97;2.85;;;17.70;57.60;;;;;;4241522;27;20060;-54
2022/04/20 06:36:56;;;;;;;5.00;2.55;;;17.80;57.10;;;;;;4241744;27;20041;-53
2022/04/20 06:38:57;;;;;;;6.55;2.35;;;17.70;56.90;;;;;;4242252;27;20088;-55
2022/04/20 06:40:58;;;;;;;4.90;2.42;;;17.70;56.70;;;;;;4249953;27;20107;-57
2022/04/20 06:42:59;;;;;;;3.88;2.70;;;17.50;56.50;;;;;;4261777;27;20427;-54
2022/04/20 06:45:01;;;;;;;5.75;2.92;;;16.80;56.60;;;;;;4257726;27;20064;-56
2022/04/20 06:47:03;;;;;;;4.80;2.90;;;16.80;57.60;;;;;;4259216;27;20075;-57
2022/04/20 06:49:04;;;;;;;3.28;2.40;;;17.00;57.20;;;;;;4257743;27;20575;-64
2022/04/20 06:51:05;;;;;;;7.65;2.45;;;17.20;57.10;;;;;;4265715;27;20042;-55
2022/04/20 07:00:06;;;;;;;7.13;3.33;;;17.40;56.50;;;;;;4261429;27;20531;-57
2022/04/20 07:02:09;;;;;;;9.52;5.53;;;17.40;56.40;;;;;;4257376;27;20271;-59
2022/04/20 07:04:10;;;;;;;8.13;4.63;;;17.40;56.30;;;;;;4259146;27;20134;-57
2022/04/20 07:06:12;;;;;;;3.40;2.70;;;17.40;56.60;;;;;;4257961;27;20026;-56
2022/04/20 07:08:14;;;;;;;4.68;3.03;;;17.30;56.00;;;;;;4258953;27;20072;-55
2022/04/20 07:10:15;;;;;;;3.95;2.75;;;16.30;56.70;;;;;;4257530;27;20107;-58
2022/04/20 07:12:16;;;;;;;4.70;2.67;;;16.00;57.40;;;;;;4258490;27;20083;-54
2022/04/20 07:14:17;;;;;;;3.33;2.60;;;15.60;57.40;;;;;;4256923;27;20068;-56
2022/04/20 07:16:18;;;;;;;4.28;2.97;;;15.90;58.20;;;;;;4258018;27;20039;-58
2022/04/20 07:18:19;;;;;;;2.45;2.25;;;16.20;57.80;;;;;;4257187;27;20083;-61
2022/04/20 07:20:20;;;;;;;4.32;2.78;;;16.10;57.10;;;;;;4257509;27;20035;-51
2022/04/20 07:22:21;;;;;;;5.28;2.60;;;15.80;57.10;;;;;;4262714;27;20030;-53
2022/04/20 07:24:23;;;;;;;3.70;2.47;;;15.70;57.60;;;;;;4260346;27;20034;-54
2022/04/20 07:26:26;;;;;;;3.53;2.58;;;15.80;57.90;;;;;;4275438;27;20730;-57
2022/04/20 07:28:27;;;;;;;5.53;3.00;;;15.90;57.10;;;;;;4268595;27;20106;-64
2022/04/20 07:30:28;;;;;;;7.30;3.38;;;15.50;57.40;;;;;;4273787;27;20103;-53
2022/04/20 07:32:29;;;;;;;2.22;2.03;;;14.90;57.70;;;;;;4258467;27;20047;-56
2022/04/20 07:34:30;;;;;;;6.28;3.05;;;14.50;58.10;;;;;;4267642;27;20106;-54
2022/04/20 07:36:31;;;;;;;4.60;2.90;;;14.20;58.20;;;;;;4256310;27;20083;-55
2022/04/20 07:38:32;;;;;;;5.07;2.33;;;14.50;58.30;;;;;;4257980;27;20443;-57
2022/04/20 07:40:34;;;;;;;4.00;2.57;;;15.10;57.60;;;;;;4257660;27;20030;-51
2022/04/20 07:42:38;;;;;;;2.90;2.10;;;14.90;57.00;;;;;;4258800;27;20027;-53
2022/04/20 07:44:39;;;;;;;4.37;2.97;;;14.60;57.80;;;;;;4239896;27;20051;-51
2022/04/20 07:46:40;;;;;;;3.77;2.47;;;14.30;57.80;;;;;;4258418;27;20030;-59
2022/04/20 07:48:41;;;;;;;6.33;2.97;;;14.00;58.30;;;;;;4260036;27;20038;-56
2022/04/20 07:50:42;;;;;;;3.00;2.27;;;13.90;58.30;;;;;;4258749;27;20063;-64
2022/04/20 07:52:51;;;;;;;3.03;2.23;;;14.10;58.50;;;;;;4257410;27;20088;-61
2022/04/20 07:54:52;;;;;;;4.63;2.40;;;14.20;57.60;;;;;;4271418;27;20014;-56
2022/04/20 07:56:55;;;;;;;3.73;2.33;;;14.00;57.40;;;;;;4259333;27;20145;-52
2022/04/20 07:58:56;;;;;;;2.80;2.40;;;14.10;57.60;;;;;;4257424;27;20027;-59
2022/04/20 08:00:57;;;;;;;3.73;2.33;;;14.30;57.10;;;;;;4257950;27;20050;-55
2022/04/20 08:03:16;;;;;;;3.93;2.50;;;14.30;56.80;;;;;;4256133;27;20072;-55
2022/04/20 08:05:19;;;;;;;4.23;3.07;;;14.10;57.10;;;;;;4251735;27;20072;-58
2022/04/20 08:07:20;;;;;;;3.37;2.40;;;14.30;57.30;;;;;;4239379;27;20435;-54
2022/04/20 08:09:21;;;;;;;5.80;2.43;;;13.90;56.70;;;;;;4240152;27;20107;-55
2022/04/20 08:11:22;;;;;;;10.47;3.70;;;13.30;57.80;;;;;;4244062;27;20039;-53
2022/04/20 08:15:43;;;;;;;4.73;3.17;;;12.60;59.50;;;;;;4242305;27;20035;-56
2022/04/20 08:17:45;;;;;;;5.53;2.40;;;12.60;60.20;;;;;;4254414;27;20046;-54
2022/04/20 08:19:48;;;;;;;4.93;2.73;;;12.60;59.90;;;;;;4256886;27;20038;-54
2022/04/20 08:21:49;;;;;;;4.43;2.33;;;12.30;59.50;;;;;;4257626;27;20087;-55
2022/04/20 08:23:50;;;;;;;6.33;2.53;;;11.70;60.00;;;;;;4241759;27;20104;-53
2022/04/20 08:25:51;;;;;;;5.70;2.70;;;11.30;60.80;;;;;;4261696;27;20059;-50
2022/04/20 08:27:52;;;;;;;8.93;3.30;;;11.10;61.10;;;;;;4265985;27;20423;-50
2022/04/20 08:29:53;;;;;;;7.37;2.73;;;10.90;61.50;;;;;;4248049;27;20084;-55
2022/04/20 08:31:54;;;;;;;7.00;2.83;;;10.70;61.80;;;;;;4266496;27;20113;-60
2022/04/20 08:33:55;;;;;;;7.30;3.20;;;10.70;61.80;;;;;;4267594;27;20482;-52
2022/04/20 08:35:56;;;;;;;3.83;2.60;;;10.80;62.10;;;;;;4247129;27;20526;-58
2022/04/20 08:37:58;;;;;;;5.27;2.03;;;10.80;61.60;;;;;;4265452;27;20064;-55
2022/04/20 08:39:59;;;;;;;2.43;2.00;;;10.90;61.30;;;;;;4257082;27;20075;-62
2022/04/20 08:42:01;;;;;;;7.30;2.07;;;11.00;60.80;;;;;;4256299;27;20049;-51
2022/04/20 08:44:04;;;;;;;7.33;2.57;;;11.00;59.70;;;;;;4257052;27;20537;-56
2022/04/20 08:46:09;;;;;;;5.17;1.87;;;11.10;59.60;;;;;;4250876;27;20039;-58
2022/04/20 08:48:10;;;;;;;3.47;1.93;;;11.30;59.30;;;;;;4260370;27;20046;-51
2022/04/20 08:50:11;;;;;;;2.27;1.33;;;11.40;59.00;;;;;;4257378;27;20039;-61
2022/04/20 08:54:33;;;;;;;3.47;2.10;;;11.50;58.80;;;;;;4244006;27;20039;-52
2022/04/20 08:57:35;;;;;;;3.83;2.10;;;11.30;59.20;;;;;;4263799;27;20142;-54
2022/04/20 08:59:06;;;;;;;6.93;2.42;;;11.00;59.90;;;;;;4234362;27;20164;-55
2022/04/20 09:01:07;;;;;;;2.40;1.90;;;10.80;59.50;;;;;;4263717;27;20563;-60
2022/04/20 09:03:08;;;;;;;4.13;1.70;;;10.80;59.60;;;;;;4238310;27;20749;-61
2022/04/20 09:05:10;;;;;;;2.93;1.77;;;10.80;59.50;;;;;;4253622;27;20074;-57
2022/04/20 09:07:14;;;;;;;4.27;1.93;;;11.00;59.50;;;;;;4255603;27;20115;-55
2022/04/20 09:09:18;;;;;;;2.90;2.13;;;11.10;59.10;;;;;;4256374;27;20096;-60
2022/04/20 09:11:21;;;;;;;4.27;1.70;;;11.10;58.40;;;;;;4255562;27;20051;-59
2022/04/20 09:13:31;;;;;;;4.67;2.13;;;11.30;58.50;;;;;;4256446;27;20107;-58
2022/04/20 09:15:33;;;;;;;2.83;1.42;;;11.70;58.70;;;;;;4244476;27;20564;-59
2022/04/20 09:17:44;;;;;;;2.60;1.90;;;12.10;58.50;;;;;;4248018;27;20455;-57
2022/04/20 09:19:48;;;;;;;3.43;2.03;;;12.30;58.00;;;;;;4258651;27;20080;-54
2022/04/20 09:21:49;;;;;;;2.50;1.80;;;12.60;57.90;;;;;;4257064;27;20034;-56
2022/04/20 09:24:05;;;;;;;6.27;2.73;;;12.80;57.00;;;;;;4242558;27;20686;-65
2022/04/20 09:26:07;;;;;;;3.77;2.30;;;12.30;57.50;;;;;;4253826;27;20054;-58
2022/04/20 09:28:08;;;;;;;2.63;1.80;;;12.30;58.20;;;;;;4259059;27;20572;-55
2022/04/20 09:30:13;;;;;;;3.73;1.97;;;11.90;58.30;;;;;;4259586;27;20071;-60
2022/04/20 09:32:34;;;;;;;4.03;2.10;;;11.40;58.70;;;;;;4255864;27;20054;-62
2022/04/20 09:34:53;;;;;;;5.20;1.87;;;11.30;59.20;;;;;;4261777;27;20419;-61
2022/04/20 09:36:55;;;;;;;5.50;2.10;;;11.30;59.30;;;;;;4259736;27;20046;-59
2022/04/20 09:39:02;;;;;;;7.27;2.23;;;11.50;59.90;;;;;;4261301;27;20494;-57
2022/04/20 09:41:10;;;;;;;4.93;1.90;;;11.60;58.90;;;;;;4265570;27;20115;-61
2022/04/20 09:43:16;;;;;;;1.73;1.53;;;11.50;59.00;;;;;;4272252;27;20030;-61
2022/04/20 09:45:19;;;;;;;3.67;1.73;;;11.40;58.60;;;;;;4243454;27;20088;-57
2022/04/20 09:49:56;;;;;;;3.57;1.73;;;11.80;58.70;;;;;;4252352;27;20038;-60
2022/04/20 09:52:08;;;;;;;5.27;1.97;;;11.90;58.20;;;;;;4245058;27;20039;-57
2022/04/20 09:54:28;;;;;;;2.20;1.80;;;12.00;57.90;;;;;;4258257;27;20046;-59
2022/04/20 09:56:29;;;;;;;4.33;2.20;;;11.90;57.80;;;;;;4260007;27;20107;-54
2022/04/20 09:58:34;;;;;;;1.90;1.40;;;12.10;58.20;;;;;;4258332;27;20050;-57
2022/04/20 10:00:49;;;;;;;1.67;1.33;;;12.30;58.10;;;;;;4258922;27;20034;-57
2022/04/20 10:02:54;;;;;;;3.33;1.70;;;12.40;56.50;;;;;;4259578;27;20054;-57
2022/04/20 10:04:56;;;;;;;2.30;1.80;;;12.40;56.90;;;;;;4254325;27;20030;-57
2022/04/20 10:06:57;;;;;;;6.47;3.67;;;12.30;57.20;;;;;;4258459;27;20046;-53
2022/04/20 10:08:58;;;;;;;2.43;1.50;;;12.30;56.90;;;;;;4258768;27;20079;-56
2022/04/20 10:11:00;;;;;;;13.47;6.93;;;12.30;56.80;;;;;;4259319;27;20087;-55
2022/04/20 10:13:04;;;;;;;14.03;7.27;;;12.40;56.90;;;;;;4257691;27;20091;-55
2022/04/20 10:17:27;;;;;;;4.10;1.90;;;12.80;56.30;;;;;;4268517;27;20038;-54
2022/04/20 10:19:31;;;;;;;7.90;3.63;;;12.90;56.40;;;;;;4276105;27;20506;-61
2022/04/20 10:21:42;;;;;;;7.93;5.50;;;13.00;56.20;;;;;;4256005;27;20087;-57
2022/04/20 10:23:50;;;;;;;2.87;1.93;;;13.10;56.00;;;;;;4276084;27;20095;-57
2022/04/20 10:25:53;;;;;;;2.40;1.57;;;13.20;55.50;;;;;;4274298;27;20042;-57
2022/04/20 10:28:21;;;;;;;2.43;1.90;;;13.30;55.60;;;;;;4260107;27;20099;-57
2022/04/20 10:30:48;;;;;;;3.80;3.03;;;13.40;55.50;;;;;;4257992;27;20455;-54
2022/04/20 10:33:03;;;;;;;4.17;3.73;;;13.30;55.90;;;;;;4210362;27;20047;-62
2022/04/20 10:35:05;;;;;;;3.00;2.30;;;13.50;55.70;;;;;;4257219;27;20043;-56
2022/04/20 10:37:09;;;;;;;4.30;1.77;;;13.50;55.50;;;;;;4258394;27;20035;-64
2022/04/20 10:39:26;;;;;;;1.73;1.40;;;13.60;55.50;;;;;;4257775;27;20486;-55
2022/04/20 10:41:27;;;;;;;3.17;2.50;;;13.30;55.00;;;;;;4258431;27;20035;-51
2022/04/20 10:43:30;;;;;;;6.00;2.77;;;13.40;55.60;;;;;;4257960;27;20102;-54
2022/04/20 10:45:34;;;;;;;4.00;1.43;;;13.60;55.70;;;;;;4258789;27;20487;-57
2022/04/20 10:47:43;;;;;;;2.40;1.90;;;14.00;55.60;;;;;;4251138;27;20994;-59
2022/04/20 10:49:45;;;;;;;2.40;1.50;;;14.10;54.80;;;;;;4272435;27;20038;-57
2022/04/20 10:51:49;;;;;;;2.47;1.40;;;14.10;55.10;;;;;;4257198;27;20046;-57
2022/04/20 10:53:52;;;;;;;2.40;1.50;;;14.30;54.80;;;;;;4228443;27;20096;-52
2022/04/20 10:55:54;;;;;;;4.53;1.60;;;14.20;53.90;;;;;;4240295;27;21438;-56
2022/04/20 10:57:57;;;;;;;2.37;1.47;;;14.00;54.10;;;;;;4268967;27;20079;-56
2022/04/20 11:00:34;;;;;;;2.30;1.50;;;14.00;54.40;;;;;;4273305;27;20079;-56
2022/04/20 11:02:47;;;;;;;2.03;1.67;;;14.00;54.20;;;;;;4231994;27;20038;-64
2022/04/20 11:04:50;;;;;;;2.60;1.57;;;14.20;53.90;;;;;;4248054;27;20768;-57